Home > Products > Valid Products > MTR

000
SAUS44 KMEG 220454
MTRTUP
METAR KTUP 220453Z AUTO 03008KT 10SM CLR 11/09 A3008 RMK AO2 SLP184
T01110089 PWINO





000
SAUS44 KMEG 220354
MTRTUP
METAR KTUP 220353Z AUTO 01003KT 10SM CLR 12/09 A3009 RMK AO2 SLP186
T01220094 PWINO





000
SAUS44 KMEG 220254
MTRTUP
METAR KTUP 220253Z AUTO 04004KT 10SM CLR 12/09 A3008 RMK AO2 SLP183
T01220094 51013 PWINO





000
SAUS44 KMEG 220254
MTRTUP
METAR KTUP 220253Z AUTO 04004KT 10SM CLR 12/09 A3008 RMK AO2 SLP183
T01220094 51013 PWINO





000
SAUS44 KMEG 220154
MTRTUP
METAR KTUP 220153Z AUTO 00000KT 10SM CLR 14/10 A3007 RMK AO2 SLP180
T01440100 PWINO





000
SAUS44 KMEG 220154
MTRTUP
METAR KTUP 220153Z AUTO 00000KT 10SM CLR 14/10 A3007 RMK AO2 SLP180
T01440100 PWINO





000
SAUS44 KMEG 220054
MTRTUP
METAR KTUP 220053Z AUTO 00000KT 10SM CLR 16/11 A3005 RMK AO2 SLP175
T01610106 PWINO





000
SAUS44 KMEG 212354
MTRTUP
METAR KTUP 212353Z AUTO 03003KT 10SM CLR 18/09 A3004 RMK AO2 SLP169
T01780094 10250 20172 53004 PWINO





000
SAUS44 KMEG 212255 COR
MTRTUP
METAR KTUP 212253Z AUTO 02005KT 10SM CLR 21/09 A3002 RMK AO2 SLP164
T02060089 PWINO





000
SAUS44 KMEG 212255 COR
MTRTUP
METAR KTUP 212253Z AUTO 02005KT 10SM CLR 21/09 A3002 RMK AO2 SLP164
T02060089 PWINO





000
SAUS44 KMEG 212154
MTRTUP
METAR KTUP 212153Z AUTO 02009KT 10SM CLR 23/08 A3002 RMK AO2 SLP163
T02330078 PWINO





000
SAUS44 KMEG 212154
MTRTUP
METAR KTUP 212153Z AUTO 02009KT 10SM CLR 23/08 A3002 RMK AO2 SLP163
T02330078 PWINO





000
SAUS44 KMEG 212054
MTRTUP
METAR KTUP 212053Z AUTO 03011KT 10SM CLR 24/08 A3002 RMK AO2 SLP164
T02440078 55011 PWINO





000
SAUS44 KMEG 211954
MTRTUP
METAR KTUP 211953Z AUTO 35008KT 10SM CLR 24/08 A3002 RMK AO2 SLP164
T02440083 PWINO





000
SAUS44 KMEG 211854
MTRTUP
METAR KTUP 211853Z 02010KT 10SM CLR 24/10 A3003 RMK AO2 SLP167
T02440100 $





000
SAUS44 KMEG 211754
MTRTUP
METAR KTUP 211753Z 04007KT 10SM CLR 24/11 A3006 RMK AO2 SLP175
T02390111 10239 20094 58010 $





000
SAUS44 KMEG 211654
MTRTUP
METAR KTUP 211653Z 03005KT 10SM CLR 22/12 A3008 RMK AO2 SLP182
T02170122 $





000
SAUS44 KMEG 211654
MTRTUP
METAR KTUP 211653Z 03005KT 10SM CLR 22/12 A3008 RMK AO2 SLP182
T02170122 $





000
SAUS44 KMEG 211554
MTRTUP
METAR KTUP 211553Z 06003KT 10SM CLR 19/13 A3008 RMK AO2 SLP185
T01940133 $





000
SAUS44 KMEG 211554
MTRTUP
METAR KTUP 211553Z 06003KT 10SM CLR 19/13 A3008 RMK AO2 SLP185
T01940133 $





000
SAUS44 KMEG 211454
MTRTUP
METAR KTUP 211453Z 06005KT 10SM CLR 17/13 A3009 RMK AO2 SLP187
T01720128 51012 $





000
SAUS44 KMEG 211354
MTRTUP
METAR KTUP 211353Z 00000KT 10SM CLR 15/12 A3009 RMK AO2 SLP186
T01500122 $





000
SAUS44 KMEG 211254
MTRTUP
METAR KTUP 211253Z 00000KT 10SM CLR 11/09 A3007 RMK AO2 SLP179
T01110094 $





000
SAUS44 KMEG 211154
MTRTUP
METAR KTUP 211153Z 00000KT 10SM CLR 10/08 A3005 RMK AO2 SLP175
T01000083 10117 20094 53008 $





000
SAUS44 KMEG 211154
MTRTUP
METAR KTUP 211153Z 00000KT 10SM CLR 10/08 A3005 RMK AO2 SLP175
T01000083 10117 20094 53008 $





000
SAUS44 KMEG 211054
MTRTUP
METAR KTUP 211053Z 00000KT 10SM CLR 10/08 A3004 RMK AO2 SLP171
T01000083 $





000
SAUS44 KMEG 211054
MTRTUP
METAR KTUP 211053Z 00000KT 10SM CLR 10/08 A3004 RMK AO2 SLP171
T01000083 $





000
SAUS44 KMEG 210954
MTRTUP
METAR KTUP 210953Z AUTO 00000KT 10SM CLR 10/09 A3003 RMK AO2 SLP168
T01000089 PWINO $





000
SAUS44 KMEG 210914
MTRTUP
SPECI KTUP 210913Z AUTO 00000KT 10SM CLR 10/09 A3003 RMK AO2
T01000089 PWINO $





000
SAUS44 KMEG 210906
MTRTUP
SPECI KTUP 210904Z AUTO 00000KT 2SM BR CLR 10/09 A3003 RMK AO2
T01000089 PWINO $





000
SAUS44 KMEG 210854
MTRTUP
METAR KTUP 210853Z AUTO 00000KT 7SM CLR 11/09 A3003 RMK AO2 SLP166
T01060089 51001 PWINO $





000
SAUS44 KMEG 210754
MTRTUP
METAR KTUP 210753Z AUTO 00000KT 9SM CLR 11/09 A3003 RMK AO2 SLP165
T01110094 PWINO $





000
SAUS44 KMEG 210654
MTRTUP
METAR KTUP 210653Z AUTO 00000KT 10SM CLR 11/09 A3003 RMK AO2 SLP166
T01110094 PWINO $





000
SAUS44 KMEG 210554
MTRTUP
METAR KTUP 210553Z AUTO 00000KT 10SM CLR 12/10 A3003 RMK AO2 SLP164
T01170100 10172 20117 402280061 58007 PWINO $





000
SAUS44 KMEG 210454
MTRTUP
METAR KTUP 210453Z AUTO 00000KT 10SM CLR 12/11 A3004 RMK AO2 SLP169
T01220106 PWINO $





000
SAUS44 KMEG 210454
MTRTUP
METAR KTUP 210453Z AUTO 00000KT 10SM CLR 12/11 A3004 RMK AO2 SLP169
T01220106 PWINO $





000
SAUS44 KMEG 210354
MTRTUP
METAR KTUP 210353Z AUTO 00000KT 10SM CLR 13/11 A3004 RMK AO2 SLP171
T01280111 PWINO $





000
SAUS44 KMEG 210354
MTRTUP
METAR KTUP 210353Z AUTO 00000KT 10SM CLR 13/11 A3004 RMK AO2 SLP171
T01280111 PWINO $





000
SAUS44 KMEG 210254
MTRTUP
METAR KTUP 210253Z 00000KT 10SM CLR 13/12 A3005 RMK AO2 SLP173
T01330117 53009 $





000
SAUS44 KMEG 210254
MTRTUP
METAR KTUP 210253Z 00000KT 10SM CLR 13/12 A3005 RMK AO2 SLP173
T01330117 53009 $





000
SAUS44 KMEG 210154
MTRTUP
METAR KTUP 210153Z 00000KT 10SM CLR 14/12 A3004 RMK AO2 SLP169
T01440122 $





000
SAUS44 KMEG 210154
MTRTUP
METAR KTUP 210153Z 00000KT 10SM CLR 14/12 A3004 RMK AO2 SLP169
T01440122 $





000
SAUS44 KMEG 210054
MTRTUP
METAR KTUP 210053Z 00000KT 10SM CLR 16/11 A3003 RMK AO2 SLP168
T01560111 $





000
SAUS44 KMEG 202354
MTRTUP
METAR KTUP 202353Z 33003KT 10SM CLR 17/11 A3002 RMK AO2 SLP165
T01720111 10228 20172 53003 $





000
SAUS44 KMEG 202254
MTRTUP
METAR KTUP 202253Z 00000KT 10SM CLR 21/10 A3000 RMK AO2 SLP158
T02060100 $





000
SAUS44 KMEG 202254
MTRTUP
METAR KTUP 202253Z 00000KT 10SM CLR 21/10 A3000 RMK AO2 SLP158
T02060100 $





000
SAUS44 KMEG 202154
MTRTUP
METAR KTUP 202153Z VRB04KT 10SM FEW120 22/10 A3001 RMK AO2 SLP160
T02220100 $





000
SAUS44 KMEG 202154
MTRTUP
METAR KTUP 202153Z VRB04KT 10SM FEW120 22/10 A3001 RMK AO2 SLP160
T02220100 $





000
SAUS44 KMEG 202054
MTRTUP
METAR KTUP 202053Z 28004KT 10SM SCT095 23/09 A3001 RMK AO2 SLP161
T02280089 56017 $





000
SAUS44 KMEG 201954
MTRTUP
METAR KTUP 201953Z VRB04KT 10SM FEW110 22/09 A3002 RMK AO2 SLP165
T02220089 $





000
SAUS44 KMEG 201854
MTRTUP
METAR KTUP 201853Z VRB03KT 10SM FEW120 22/09 A3004 RMK AO2 SLP169
T02220089 $





000
SAUS44 KMEG 201754
MTRTUP
METAR KTUP 201753Z 33004KT 10SM CLR 21/09 A3006 RMK AO2 SLP178
T02110094 10217 20061 58016 $





000
SAUS44 KMEG 201654
MTRTUP
METAR KTUP 201653Z 31003KT 10SM CLR 20/10 A3009 RMK AO2 SLP187
T02000100 $





000
SAUS44 KMEG 201554
MTRTUP
METAR KTUP 201553Z VRB03KT 10SM CLR 18/10 A3011 RMK AO2 SLP194
T01830100 $





000
SAUS44 KMEG 201454
MTRTUP
METAR KTUP 201453Z 00000KT 10SM CLR 16/12 A3011 RMK AO2 SLP194
T01610117 50006 $





000
SAUS44 KMEG 201354
MTRTUP
METAR KTUP 201353Z 00000KT 10SM CLR 12/10 A3011 RMK AO2 SLP195
T01170100 $





000
SAUS44 KMEG 201254
MTRTUP
METAR KTUP 201253Z 00000KT 10SM CLR 08/06 A3010 RMK AO2 SLP192
T00780061 $





000
SAUS44 KMEG 201154
MTRTUP
METAR KTUP 201153Z 00000KT 10SM CLR 07/06 A3009 RMK AO2 SLP188
T00720061 10094 20067 53006 $





000
SAUS44 KMEG 201054
MTRTUP
METAR KTUP 201053Z 04003KT 10SM CLR 07/06 A3008 RMK AO2 SLP185
T00670056 $





000
SAUS44 KMEG 201054
MTRTUP
METAR KTUP 201053Z 04003KT 10SM CLR 07/06 A3008 RMK AO2 SLP185
T00670056 $





000
SAUS44 KMEG 200954
MTRTUP
METAR KTUP 200953Z AUTO 00000KT 10SM CLR 08/06 A3008 RMK AO2 SLP182
T00780061 PWINO $





000
SAUS44 KMEG 200954
MTRTUP
METAR KTUP 200953Z AUTO 00000KT 10SM CLR 08/06 A3008 RMK AO2 SLP182
T00780061 PWINO $





000
SAUS44 KMEG 200854
MTRTUP
METAR KTUP 200853Z AUTO 00000KT 10SM CLR 08/07 A3007 RMK AO2 SLP181
T00780067 58006 PWINO $





000
SAUS44 KMEG 200754
MTRTUP
METAR KTUP 200753Z AUTO 00000KT 10SM CLR 08/07 A3008 RMK AO2 SLP184
T00780067 PWINO $





000
SAUS44 KMEG 200754
MTRTUP
METAR KTUP 200753Z AUTO 00000KT 10SM CLR 08/07 A3008 RMK AO2 SLP184
T00780067 PWINO $





000
SAUS44 KMEG 200654
MTRTUP
METAR KTUP 200653Z AUTO 00000KT 9SM CLR 09/08 A3008 RMK AO2 SLP185
T00890078 PWINO $





000
SAUS44 KMEG 200554
MTRTUP
METAR KTUP 200553Z AUTO 00000KT 10SM CLR 09/08 A3009 RMK AO2 SLP187
T00940078 10150 20094 402000072 58004 PWINO $





000
SAUS44 KMEG 200454
MTRTUP
METAR KTUP 200453Z AUTO 00000KT 10SM CLR 10/08 A3009 RMK AO2 SLP188
T01000083 PWINO $





000
SAUS44 KMEG 200354
MTRTUP
METAR KTUP 200353Z AUTO 00000KT 10SM CLR 10/08 A3010 RMK AO2 SLP190
T01000083 PWINO $





000
SAUS44 KMEG 200254
MTRTUP
METAR KTUP 200253Z 00000KT 10SM CLR 11/09 A3010 RMK AO2 SLP192
T01110089 58000 $





000
SAUS44 KMEG 200154
MTRTUP
METAR KTUP 200153Z 04003KT 10SM CLR 11/08 A3010 RMK AO2 SLP191
T01060083 $





000
SAUS44 KMEG 200056
MTRTUP
METAR KTUP 200053Z 00000KT 10SM CLR 13/09 A3010 RMK AO2 SLP193
T01280094 $





000
SAUS44 KMEG 192354
MTRTUP
METAR KTUP 192353Z 00000KT 10SM CLR 15/09 A3010 RMK AO2 SLP192
T01500094 10200 20150 55002 $





000
SAUS44 KMEG 192354
MTRTUP
METAR KTUP 192353Z 00000KT 10SM CLR 15/09 A3010 RMK AO2 SLP192
T01500094 10200 20150 55002 $





000
SAUS44 KMEG 192254
MTRTUP
METAR KTUP 192253Z 09004KT 10SM CLR 18/08 A3009 RMK AO2 SLP189
T01830083 $





000
SAUS44 KMEG 192254
MTRTUP
METAR KTUP 192253Z 09004KT 10SM CLR 18/08 A3009 RMK AO2 SLP189
T01830083 $





000
SAUS44 KMEG 192154
MTRTUP
METAR KTUP 192153Z AUTO 02005KT 10SM CLR 19/08 A3010 RMK AO2 SLP191
T01940078 PWINO $





000
SAUS44 KMEG 192154
MTRTUP
METAR KTUP 192153Z AUTO 02005KT 10SM CLR 19/08 A3010 RMK AO2 SLP191
T01940078 PWINO $





000
SAUS44 KMEG 192054
MTRTUP
METAR KTUP 192053Z AUTO 06007KT 10SM CLR 20/08 A3011 RMK AO2 SLP193
T02000078 56024 PWINO $





000
SAUS44 KMEG 191954
MTRTUP
METAR KTUP 191953Z AUTO VRB03KT 10SM CLR 20/08 A3012 RMK AO2 SLP197
T02000078 PWINO $





000
SAUS44 KMEG 191854
MTRTUP
METAR KTUP 191853Z 00000KT 10SM CLR 19/07 A3014 RMK AO2 SLP206
T01890072 $





000
SAUS44 KMEG 191754
MTRTUP
METAR KTUP 191753Z 04006KT 10SM CLR 18/07 A3018 RMK AO2 SLP218
T01780067 10178 20072 58016 $





000
SAUS44 KMEG 191654
MTRTUP
METAR KTUP 191653Z 06005KT 10SM CLR 17/07 A3020 RMK AO2 SLP226
T01720067 $





000
SAUS44 KMEG 191554
MTRTUP
METAR KTUP 191553Z 09006KT 10SM CLR 16/07 A3021 RMK AO2 SLP229
T01560067 $





000
SAUS44 KMEG 191454
MTRTUP
METAR KTUP 191453Z 09006KT 10SM CLR 13/08 A3023 RMK AO2 SLP233
T01330078 50009 $





000
SAUS44 KMEG 191354
MTRTUP
METAR KTUP 191353Z 05006KT 10SM CLR 11/08 A3023 RMK AO2 SLP235
T01060078 $





000
SAUS44 KMEG 191254
MTRTUP
METAR KTUP 191253Z 03004KT 10SM CLR 08/07 A3021 RMK AO2 SLP229
T00830067 $





000
SAUS44 KMEG 191154
MTRTUP
METAR KTUP 191153Z 03003KT 10SM CLR 08/07 A3020 RMK AO2 SLP225
T00830067 10100 20078 51013 $





000
SAUS44 KMEG 191054
MTRTUP
METAR KTUP 191053Z 03004KT 10SM CLR 08/06 A3020 RMK AO2 SLP224
T00830061 $





000
SAUS44 KMEG 190954
MTRTUP
METAR KTUP 190953Z AUTO 01003KT 10SM CLR 09/07 A3018 RMK AO2 SLP216
T00940072 PWINO $





000
SAUS44 KMEG 190954
MTRTUP
METAR KTUP 190953Z AUTO 01003KT 10SM CLR 09/07 A3018 RMK AO2 SLP216
T00940072 PWINO $





000
SAUS44 KMEG 190854
MTRTUP
METAR KTUP 190853Z AUTO 03005KT 10SM CLR 09/07 A3016 RMK AO2 SLP211
T00890072 51003 PWINO $





000
SAUS44 KMEG 190754
MTRTUP
METAR KTUP 190753Z AUTO 03006KT 10SM CLR 09/07 A3016 RMK AO2 SLP210
T00940072 PWINO $





000
SAUS44 KMEG 190654
MTRTUP
METAR KTUP 190653Z AUTO 03005KT 10SM CLR 09/08 A3015 RMK AO2 SLP209
T00940078 PWINO $





000
SAUS44 KMEG 190554
MTRTUP
METAR KTUP 190553Z AUTO 03005KT 10SM CLR 10/08 A3015 RMK AO2 SLP207
T01000078 10156 20100 402170100 51005 PWINO $





    US Dept of Commerce
    National Oceanic and Atmospheric Administration
    National Weather Service
    1325 East West Highway
    Silver Spring, MD 20910
    Page Author: NWS Internet Services Team
Disclaimer
Information Quality
Credits
Glossary
Privacy Policy
Freedom of Information Act (FOIA)
About Us
Career Opportunities